K5RLW Weather Reports


Display with metric or nautical units.
time (UTC)temp
F
wind
direction
speed
MPH
gust
MPH
rain 1hr
in
rain 24hr
in
rain mn
in
humidity
%
barometer
mb
20210616005015 87 0.0 0.0 0.00 0.00 0.00 63 1016.4
20210616003015 88 0.0 2.0 0.00 0.00 0.00 62 1016.3
20210616002015 89 0.0 3.0 0.00 0.00 0.00 61 1016.3
20210616001015 89 0.0 2.0 0.00 0.00 0.00 60 1016.3
20210616000015 89 23 1.0 4.0 0.00 0.00 0.00 56 1016.2
20210615235015 90 0.0 3.0 0.00 0.00 0.00 57 1016.3
20210615233015 90 23 1.0 5.0 0.00 0.00 0.00 54 1016.4
20210615230015 91 23 2.0 6.0 0.00 0.00 0.00 54 1016.9
20210615220017 92 0.0 1.0 0.00 0.00 0.00 49 1017.4
20210615213017 93 23 1.0 4.0 0.00 0.00 0.00 49 1017.6
20210615212017 93 23 1.0 3.0 0.00 0.00 0.00 43 1017.7
20210615211016 93 23 1.0 4.0 0.00 0.00 0.00 47 1017.9
20210615210016 93 23 1.0 3.0 0.00 0.00 0.00 50 1018.0
20210615205017 93 23 1.0 7.0 0.00 0.00 0.00 45 1018.1
20210615204017 93 90 2.0 7.0 0.00 0.00 0.00 46 1018.2
20210615201017 92 113 1.0 6.0 0.00 0.00 0.00 46 1018.4
20210615200017 92 113 1.0 4.0 0.00 0.00 0.00 45 1018.5
20210615193017 92 45 2.0 6.0 0.00 0.00 0.00 49 1018.6
20210615192017 91 113 2.0 6.0 0.00 0.00 0.00 47 1018.8
20210615191017 91 45 2.0 8.0 0.00 0.00 0.00 50 1018.8
20210615190016 92 45 1.0 5.0 0.00 0.00 0.00 50 1018.9
20210615185017 91 23 1.0 4.0 0.00 0.00 0.00 56 1019.1
20210615184017 91 23 2.0 8.0 0.00 0.00 0.00 50 1019.1
20210615183017 92 23 1.0 7.0 0.00 0.00 0.00 51 1019.2
20210615180017 91 23 2.0 9.0 0.00 0.00 0.00 53 1019.4
20210615175016 91 23 1.0 4.0 0.00 0.00 0.00 55 1019.4
20210615174016 91 23 2.0 9.0 0.00 0.00 0.00 51 1019.4
20210615172016 91 45 3.0 8.0 0.00 0.00 0.00 55 1019.5
20210615171016 90 113 1.0 3.0 0.00 0.00 0.00 54 1019.4
20210615170017 90 0.0 3.0 0.00 0.00 0.00 58 1019.5
20210615163018 89 113 1.0 3.0 0.00 0.00 0.00 56 1019.5
20210615162017 89 113 1.0 4.0 0.00 0.00 0.00 56 1019.4
20210615161016 89 113 1.0 4.0 0.00 0.00 0.00 55 1019.5
20210615160017 89 113 1.0 4.0 0.00 0.00 0.00 58 1019.4
20210615155016 89 0.0 2.0 0.00 0.00 0.00 58 1019.4
20210615154016 88 113 1.0 3.0 0.00 0.00 0.00 59 1019.4
20210615153016 88 113 2.0 7.0 0.00 0.00 0.00 62 1019.5
20210615151016 87 68 1.0 3.0 0.00 0.00 0.00 67 1019.5
20210615150016 87 0.0 2.0 0.00 0.00 0.00 70 1019.6
20210615144016 86 45 1.0 4.0 0.00 0.00 0.00 73 1019.6
20210615142016 84 0.0 1.0 0.00 0.00 0.00 79 1019.7
20210615141016 83 45 1.0 5.0 0.00 0.00 0.00 78 1019.5
20210615140016 82 45 1.0 3.0 0.00 0.00 0.00 80 1019.4
20210615134016 80 45 2.0 4.0 0.00 0.00 0.00 86 1019.3
20210615133016 78 45 1.0 3.0 0.00 0.00 0.00 92 1019.3
20210615132016 77 0.0 0.0 0.00 0.00 0.00 94 1019.3
20210615130016 76 0.0 0.0 0.00 0.00 0.00 96 1018.9
20210615123016 74 0.0 0.0 0.00 0.00 0.00 96 1018.6
20210615121016 73 0.0 0.0 0.00 0.00 0.00 95 1018.5
20210615115016 72 0.0 0.0 0.00 0.00 0.00 94 1018.4
20210615114016 73 0.0 0.0 0.00 0.00 0.00 94 1018.4
20210615113016 73 0.0 0.0 0.00 0.00 0.00 94 1018.2
20210615111015 73 0.0 0.0 0.00 0.00 0.00 95 1018.0
20210615105016 73 0.0 0.0 0.00 0.00 0.00 94 1017.9
20210615104016 73 0.0 0.0 0.00 0.00 0.00 94 1017.8
20210615103016 73 0.0 0.0 0.00 0.00 0.00 94 1017.9
20210615095016 74 0.0 0.0 0.00 0.00 0.00 94 1017.8
20210615094016 74 0.0 0.0 0.00 0.00 0.00 94 1017.8
20210615085015 74 0.0 0.0 0.00 0.00 0.00 93 1017.6
20210615084015 74 0.0 0.0 0.00 0.00 0.00 93 1017.6
20210615082016 75 0.0 0.0 0.00 0.00 0.00 93 1017.7
20210615074016 75 0.0 0.0 0.00 0.00 0.00 93 1017.5
20210615072015 75 0.0 0.0 0.00 0.00 0.00 92 1017.5
20210615070015 75 0.0 0.0 0.00 0.00 0.00 91 1017.4
20210615065015 76 0.0 0.0 0.00 0.00 0.00 91 1017.4
20210615063015 76 0.0 0.0 0.00 0.00 0.00 91 1017.3
20210615062015 76 0.0 0.0 0.00 0.00 0.00 90 1017.4
20210615061015 76 0.0 0.0 0.00 0.00 0.00 90 1017.4
20210615055015 77 0.0 0.0 0.00 0.00 0.00 90 1017.5
20210615054015 77 0.0 0.0 0.00 0.00 0.00 89 1017.5
20210615052015 78 0.0 0.0 0.00 0.00 0.00 89 1017.5
20210615045016 79 0.0 0.0 0.00 0.00 0.00 89 1017.6
20210615043016 79 0.0 0.0 0.00 0.00 0.00 89 1017.5
20210615040016 80 0.0 0.0 0.00 0.00 0.00 89 1017.5
20210615035016 80 0.0 0.0 0.00 0.00 0.00 89 1017.3
20210615032016 81 0.0 0.0 0.00 0.00 0.00 89 1016.9
20210615030016 81 0.0 0.0 0.00 0.00 0.00 87 1016.6
20210615025016 82 0.0 0.0 0.00 0.00 0.00 87 1016.5
20210615023016 82 0.0 0.0 0.00 0.00 0.00 85 1016.4
20210615015016 84 0.0 0.0 0.00 0.00 0.00 82 1016.1
20210615014015 84 0.0 0.0 0.00 0.00 0.00 80 1016.2
20210615013016 85 0.0 0.0 0.00 0.00 0.00 80 1016.0